createdAt,value
2018-05-25T00:01:57.897Z,16.40
2018-05-25T00:04:24.937Z,16.30
2018-05-25T00:06:52.003Z,16.30
2018-05-25T00:09:18.294Z,16.30
2018-05-25T00:11:44.558Z,16.40
2018-05-25T00:14:10.803Z,16.30
2018-05-25T00:16:37.039Z,16.30
2018-05-25T00:19:03.272Z,16.30
2018-05-25T00:21:29.501Z,16.30
2018-05-25T00:23:55.787Z,16.40
2018-05-25T00:26:22.773Z,16.50
2018-05-25T00:28:48.987Z,16.40
2018-05-25T00:31:15.224Z,16.40
2018-05-25T00:33:41.433Z,16.40
2018-05-25T00:36:07.647Z,16.40
2018-05-25T00:38:34.593Z,16.60
2018-05-25T00:41:01.562Z,16.60
2018-05-25T00:43:27.771Z,16.60
2018-05-25T00:45:54.082Z,16.60
2018-05-25T00:48:21.055Z,16.80
2018-05-25T00:50:47.290Z,16.70
2018-05-25T00:53:13.518Z,16.80
2018-05-25T00:55:39.774Z,16.90
2018-05-25T00:58:06.015Z,16.90
2018-05-25T01:00:32.284Z,16.90
2018-05-25T01:02:58.510Z,17.00
2018-05-25T01:05:24.713Z,17.00
2018-05-25T01:07:50.955Z,17.20
2018-05-25T01:10:17.925Z,17.10
2018-05-25T01:12:44.137Z,17.00
2018-05-25T01:15:10.361Z,17.10
2018-05-25T01:17:51.450Z,17.20
2018-05-25T01:20:17.798Z,17.10
2018-05-25T01:22:44.009Z,17.10
2018-05-25T01:25:10.230Z,17.10
2018-05-25T01:27:36.452Z,17.30
2018-05-25T01:30:02.689Z,17.30
2018-05-25T01:32:28.933Z,17.30
2018-05-25T01:34:55.145Z,17.20
2018-05-25T01:37:21.361Z,17.20
2018-05-25T01:39:47.597Z,17.30
2018-05-25T01:42:13.830Z,17.40
2018-05-25T01:44:40.050Z,17.40
2018-05-25T01:47:06.262Z,17.40
2018-05-25T01:49:33.296Z,17.40
2018-05-25T01:51:59.531Z,17.30
2018-05-25T01:54:26.505Z,17.40
2018-05-25T01:56:52.835Z,17.30
2018-05-25T01:59:19.054Z,17.30
2018-05-25T02:01:45.273Z,17.20
2018-05-25T02:04:11.492Z,17.20
2018-05-25T02:06:38.478Z,17.20
2018-05-25T02:09:04.746Z,17.20
2018-05-25T02:11:30.949Z,17.10
2018-05-25T02:13:57.957Z,16.90
2018-05-25T02:16:24.176Z,16.80
2018-05-25T02:18:50.406Z,16.80
2018-05-25T02:21:16.627Z,16.70
2018-05-25T02:23:42.977Z,16.70
2018-05-25T02:26:09.193Z,16.70
2018-05-25T02:28:35.392Z,16.60
2018-05-25T02:31:01.598Z,16.50
2018-05-25T02:33:27.818Z,16.50
2018-05-25T02:35:54.036Z,16.50
2018-05-25T02:38:20.258Z,16.60
2018-05-25T02:40:46.459Z,16.60
2018-05-25T02:43:12.644Z,16.60
2018-05-25T02:45:38.863Z,16.60
2018-05-25T02:48:05.095Z,16.50
2018-05-25T02:50:31.367Z,16.50
2018-05-25T02:52:57.582Z,16.50
2018-05-25T02:55:24.538Z,16.30
2018-05-25T02:57:50.762Z,16.30
2018-05-25T03:00:17.013Z,16.20
2018-05-25T03:02:43.214Z,16.10
2018-05-25T03:05:10.199Z,16.00
2018-05-25T03:07:36.430Z,16.00
2018-05-25T03:10:02.658Z,16.00
2018-05-25T03:12:28.849Z,15.90
2018-05-25T03:14:55.089Z,15.80
2018-05-25T03:17:21.314Z,15.80
2018-05-25T03:19:47.543Z,15.70
2018-05-25T03:22:13.726Z,15.70
2018-05-25T03:24:39.960Z,15.60
2018-05-25T03:27:06.949Z,15.60
2018-05-25T03:29:33.174Z,15.50
2018-05-25T03:31:59.364Z,15.50
2018-05-25T03:34:26.315Z,15.50
2018-05-25T03:36:53.269Z,15.50
2018-05-25T03:39:20.197Z,15.40
2018-05-25T03:41:47.167Z,15.40
2018-05-25T03:44:13.402Z,15.40
2018-05-25T03:46:39.634Z,15.50
2018-05-25T03:49:05.847Z,15.40
2018-05-25T03:51:32.095Z,15.40
2018-05-25T03:53:58.305Z,15.40
2018-05-25T03:56:24.532Z,15.30
2018-05-25T03:59:03.060Z,15.30
2018-05-25T04:01:45.226Z,15.30
2018-05-25T04:04:13.098Z,15.30
2018-05-25T04:06:40.068Z,15.40
2018-05-25T04:09:06.283Z,15.40
2018-05-25T04:11:32.484Z,15.40
2018-05-25T04:13:58.718Z,15.50
2018-05-25T04:16:25.665Z,15.70
2018-05-25T04:18:52.610Z,15.70
2018-05-25T04:21:19.542Z,15.70
2018-05-25T04:23:45.764Z,15.70
2018-05-25T04:26:13.633Z,15.60
2018-05-25T04:28:40.567Z,15.60
2018-05-25T04:31:06.781Z,15.60
2018-05-25T04:33:33.016Z,15.60
2018-05-25T04:35:59.303Z,15.60
2018-05-25T04:38:25.517Z,15.60
2018-05-25T04:40:51.766Z,15.60
2018-05-25T04:43:17.998Z,15.60
2018-05-25T04:45:44.286Z,15.70
2018-05-25T04:48:11.269Z,15.80
2018-05-25T04:50:38.218Z,15.90
2018-05-25T04:53:04.463Z,15.80
2018-05-25T04:55:30.676Z,16.00
2018-05-25T04:57:56.936Z,16.00
2018-05-25T05:00:23.145Z,16.10
2018-05-25T05:02:49.346Z,16.20
2018-05-25T05:05:15.588Z,16.30
2018-05-25T05:07:41.890Z,16.40
2018-05-25T05:10:08.107Z,16.60
2018-05-25T05:12:35.064Z,16.90
2018-05-25T05:15:01.306Z,16.90
2018-05-25T05:17:27.516Z,17.10
2018-05-25T05:19:53.759Z,17.40
2018-05-25T05:22:20.075Z,17.60
2018-05-25T05:24:46.275Z,18.00
2018-05-25T05:27:13.230Z,18.50
2018-05-25T05:29:40.183Z,18.90
2018-05-25T05:32:07.178Z,19.10
2018-05-25T05:34:33.418Z,19.00
2018-05-25T05:36:59.618Z,19.10
2018-05-25T05:39:25.829Z,19.20
2018-05-25T05:41:52.058Z,19.10
2018-05-25T05:44:18.296Z,19.10
2018-05-25T05:46:44.525Z,19.00
2018-05-25T05:49:10.745Z,19.00
2018-05-25T05:51:36.950Z,18.90
2018-05-25T05:54:03.177Z,18.90
2018-05-25T05:56:30.125Z,19.00
2018-05-25T05:58:56.463Z,19.00
2018-05-25T06:01:22.739Z,19.00
2018-05-25T06:03:48.966Z,19.10
2018-05-25T06:06:15.212Z,19.20
2018-05-25T06:08:41.446Z,19.20
2018-05-25T06:11:08.391Z,19.40
2018-05-25T06:13:35.357Z,19.50
2018-05-25T06:16:01.621Z,19.50
2018-05-25T06:18:27.858Z,19.60
2018-05-25T06:20:54.090Z,19.80
2018-05-25T06:23:20.369Z,20.00
2018-05-25T06:25:47.359Z,20.20
2018-05-25T06:28:13.549Z,20.20
2018-05-25T06:30:39.790Z,20.30
2018-05-25T06:33:06.773Z,20.50
2018-05-25T06:35:32.974Z,20.40
2018-05-25T06:37:59.222Z,20.50
2018-05-25T06:40:25.471Z,20.60
2018-05-25T06:42:51.677Z,20.80
2018-05-25T06:45:17.911Z,20.90
2018-05-25T06:47:44.114Z,20.90
2018-05-25T06:50:10.372Z,21.00
2018-05-25T06:52:36.618Z,21.00
2018-05-25T06:55:03.606Z,21.00
2018-05-25T06:57:29.835Z,21.00
2018-05-25T06:59:56.066Z,21.00
2018-05-25T07:02:22.293Z,21.10
2018-05-25T07:04:48.530Z,21.20
2018-05-25T07:07:14.754Z,21.30
2018-05-25T07:12:13.963Z,21.40
2018-05-25T07:14:40.180Z,21.50
2018-05-25T07:17:06.433Z,21.70
2018-05-25T07:19:32.697Z,21.80
2018-05-25T07:21:59.668Z,22.20
2018-05-25T07:24:25.896Z,22.20
2018-05-25T07:26:52.176Z,22.40
2018-05-25T07:29:18.602Z,22.70
2018-05-25T07:31:44.830Z,23.80
2018-05-25T07:34:11.051Z,25.80
2018-05-25T07:36:37.278Z,28.00
2018-05-25T07:39:03.578Z,29.90
2018-05-25T07:41:29.902Z,31.30
2018-05-25T07:43:56.193Z,32.20
2018-05-25T07:46:22.421Z,33.10
2018-05-25T07:48:48.659Z,33.90
2018-05-25T07:51:15.689Z,35.50
2018-05-25T07:53:41.901Z,35.40
2018-05-25T07:56:08.170Z,35.80
2018-05-25T07:58:35.130Z,36.20
2018-05-25T08:01:01.368Z,36.20
2018-05-25T08:03:27.634Z,35.30
2018-05-25T08:05:53.904Z,33.50
2018-05-25T08:08:20.835Z,30.90
2018-05-25T08:10:47.826Z,30.20
2018-05-25T08:13:14.045Z,30.10
2018-05-25T08:15:40.283Z,29.60
2018-05-25T08:18:06.506Z,29.70
2018-05-25T08:20:32.711Z,30.10
2018-05-25T08:22:58.966Z,31.60
2018-05-25T08:25:25.950Z,34.80
2018-05-25T08:27:52.194Z,34.80
2018-05-25T08:30:19.202Z,36.20
2018-05-25T08:32:45.451Z,36.20
2018-05-25T08:35:11.657Z,36.60
2018-05-25T08:37:37.944Z,35.90
2018-05-25T08:40:04.874Z,35.80
2018-05-25T08:42:31.857Z,34.60
2018-05-25T08:44:58.092Z,34.60
2018-05-25T08:47:24.324Z,34.70
2018-05-25T08:49:50.570Z,35.10
2018-05-25T08:52:16.817Z,36.30
2018-05-25T08:54:43.800Z,38.20
2018-05-25T08:57:10.017Z,38.20
2018-05-25T08:59:36.318Z,38.10
2018-05-25T09:02:03.325Z,37.40
2018-05-25T09:04:29.525Z,37.30
2018-05-25T09:06:55.774Z,36.90
2018-05-25T09:09:28.856Z,36.20
2018-05-25T09:11:55.090Z,35.40
2018-05-25T09:14:21.310Z,34.60
2018-05-25T09:16:47.535Z,33.90
2018-05-25T09:19:13.765Z,33.20
2018-05-25T09:21:40.200Z,32.60
2018-05-25T09:24:06.362Z,32.50
2018-05-25T09:26:32.578Z,32.90
2018-05-25T09:28:58.818Z,32.80
2018-05-25T09:31:25.037Z,32.90
2018-05-25T09:33:51.328Z,35.10
2018-05-25T09:36:17.589Z,35.50
2018-05-25T09:38:43.818Z,38.00
2018-05-25T09:41:10.021Z,39.90
2018-05-25T09:43:36.254Z,41.20
2018-05-25T09:46:02.543Z,42.90
2018-05-25T09:48:29.490Z,43.10
2018-05-25T09:50:55.756Z,43.10
2018-05-25T09:53:22.018Z,42.90
2018-05-25T09:55:48.250Z,42.80
2018-05-25T09:58:14.478Z,41.50
2018-05-25T10:00:41.482Z,39.60
2018-05-25T10:03:07.753Z,39.50
2018-05-25T10:05:33.973Z,39.80
2018-05-25T10:08:00.230Z,39.70
2018-05-25T10:10:27.214Z,39.70
2018-05-25T10:12:53.522Z,39.60
2018-05-25T10:15:19.765Z,39.60
2018-05-25T10:17:46.032Z,40.10
2018-05-25T10:20:12.994Z,36.20
2018-05-25T10:22:39.299Z,36.10
2018-05-25T10:25:05.643Z,34.20
2018-05-25T10:27:31.874Z,33.60
2018-05-25T10:29:58.209Z,35.30
2018-05-25T10:32:25.182Z,37.30
2018-05-25T10:34:51.415Z,37.30
2018-05-25T10:37:17.671Z,38.70
2018-05-25T10:39:43.932Z,39.70
2018-05-25T10:42:10.164Z,40.80
2018-05-25T10:44:37.134Z,40.90
2018-05-25T10:47:03.512Z,40.80
2018-05-25T10:49:29.737Z,41.60
2018-05-25T10:51:55.949Z,42.40
2018-05-25T10:54:22.191Z,42.70
2018-05-25T10:56:48.477Z,42.30
2018-05-25T10:59:14.687Z,42.50
2018-05-25T11:01:41.663Z,39.60
2018-05-25T11:04:07.885Z,39.60
2018-05-25T11:06:34.091Z,37.10
2018-05-25T11:09:01.059Z,35.00
2018-05-25T11:11:27.314Z,35.00
2018-05-25T11:13:53.562Z,34.30
2018-05-25T11:16:19.784Z,34.30
2018-05-25T11:18:45.981Z,33.90
2018-05-25T11:21:12.266Z,33.00
2018-05-25T11:23:39.264Z,31.30
2018-05-25T11:26:05.649Z,31.20
2018-05-25T11:28:32.625Z,30.40
2018-05-25T11:30:58.870Z,30.30
2018-05-25T11:33:25.185Z,30.10
2018-05-25T11:35:51.429Z,29.80
2018-05-25T11:38:17.679Z,30.00
2018-05-25T11:40:43.920Z,31.80
2018-05-25T11:43:10.208Z,33.50
2018-05-25T11:45:36.468Z,34.00
2018-05-25T11:48:02.710Z,34.40
2018-05-25T11:50:29.038Z,34.90
2018-05-25T11:52:55.332Z,34.90
2018-05-25T11:55:21.630Z,34.50
2018-05-25T11:57:47.859Z,34.30
2018-05-25T12:00:14.133Z,33.10
2018-05-25T12:02:40.386Z,32.20
2018-05-25T12:05:07.380Z,31.00
2018-05-25T12:07:33.625Z,30.90
2018-05-25T12:09:59.847Z,30.90
2018-05-25T12:12:26.086Z,30.60
2018-05-25T12:14:52.384Z,30.60
2018-05-25T12:17:18.650Z,30.70
2018-05-25T12:19:44.862Z,30.90
2018-05-25T12:22:11.164Z,31.10
2018-05-25T12:24:37.409Z,30.50
2018-05-25T12:27:03.629Z,30.00
2018-05-25T12:29:29.843Z,30.00
2018-05-25T12:31:56.116Z,30.20
2018-05-25T12:34:22.365Z,30.30
2018-05-25T12:36:49.306Z,30.00
2018-05-25T12:39:15.641Z,30.00
2018-05-25T12:41:41.890Z,29.80
2018-05-25T12:44:08.854Z,29.10
2018-05-25T12:46:35.091Z,29.00
2018-05-25T12:49:01.314Z,28.90
2018-05-25T12:51:28.543Z,28.70
2018-05-25T12:53:54.860Z,28.90
2018-05-25T12:56:21.798Z,29.80
2018-05-25T12:58:48.762Z,30.10
2018-05-25T13:01:15.013Z,30.10
2018-05-25T13:03:41.256Z,30.10
2018-05-25T13:06:07.467Z,30.30
2018-05-25T13:08:33.733Z,30.20
2018-05-25T13:11:00.086Z,30.30
2018-05-25T13:13:27.079Z,28.90
2018-05-25T13:15:53.347Z,28.90
2018-05-25T13:18:19.600Z,28.50
2018-05-25T13:20:46.559Z,28.40
2018-05-25T13:23:12.778Z,28.40
2018-05-25T13:25:39.013Z,28.30
2018-05-25T13:28:05.350Z,28.20
2018-05-25T13:30:31.623Z,28.30
2018-05-25T13:32:57.846Z,28.10
2018-05-25T13:35:24.078Z,27.80
2018-05-25T13:37:50.339Z,27.40
2018-05-25T13:40:17.425Z,27.50
2018-05-25T13:42:43.670Z,27.50
2018-05-25T13:45:09.894Z,27.70
2018-05-25T13:47:36.155Z,27.80
2018-05-25T13:50:03.234Z,28.30
2018-05-25T13:52:29.474Z,28.30
2018-05-25T13:54:55.728Z,28.50
2018-05-25T13:57:21.955Z,28.80
2018-05-25T13:59:48.178Z,28.90
2018-05-25T14:02:14.472Z,29.10
2018-05-25T14:04:40.750Z,29.10
2018-05-25T14:07:07.025Z,29.20
2018-05-25T14:09:33.243Z,29.60
2018-05-25T14:12:00.220Z,29.80
2018-05-25T14:14:26.482Z,29.80
2018-05-25T14:16:52.722Z,29.80
2018-05-25T14:19:18.953Z,29.70
2018-05-25T14:21:45.171Z,29.60
2018-05-25T14:24:11.444Z,29.50
2018-05-25T14:26:37.667Z,29.60
2018-05-25T14:29:03.975Z,29.40
2018-05-25T14:31:30.962Z,29.10
2018-05-25T14:33:57.929Z,29.00
2018-05-25T14:36:24.154Z,29.00
2018-05-25T14:38:50.397Z,28.80
2018-05-25T14:41:16.682Z,28.40
2018-05-25T14:43:43.609Z,27.70
2018-05-25T14:46:09.868Z,27.70
2018-05-25T14:48:36.072Z,27.40
2018-05-25T14:51:02.349Z,27.00
2018-05-25T14:53:28.583Z,26.90
2018-05-25T14:55:54.850Z,26.80
2018-05-25T14:58:21.119Z,26.70
2018-05-25T15:00:47.358Z,26.70
2018-05-25T15:03:13.578Z,26.70
2018-05-25T15:05:39.807Z,26.60
2018-05-25T15:08:06.058Z,26.40
2018-05-25T15:10:32.295Z,26.20
2018-05-25T15:12:58.548Z,26.20
2018-05-25T15:15:24.823Z,26.10
2018-05-25T15:17:51.033Z,26.10
2018-05-25T15:20:17.270Z,26.00
2018-05-25T15:22:43.498Z,25.90
2018-05-25T15:25:09.783Z,26.00
2018-05-25T15:27:36.027Z,26.10
2018-05-25T15:30:02.285Z,26.20
2018-05-25T15:32:28.573Z,26.30
2018-05-25T15:34:54.830Z,26.40
2018-05-25T15:37:21.040Z,26.40
2018-05-25T15:39:47.310Z,26.40
2018-05-25T15:42:14.405Z,26.40
2018-05-25T15:44:47.348Z,26.40
2018-05-25T15:47:14.513Z,26.20
2018-05-25T15:49:40.774Z,26.10
2018-05-25T15:52:07.023Z,26.10
2018-05-25T15:54:34.807Z,26.00
2018-05-25T15:57:01.042Z,26.00
2018-05-25T15:59:27.331Z,26.10
2018-05-25T16:01:54.464Z,26.10
2018-05-25T16:04:21.088Z,26.10
2018-05-25T16:06:48.066Z,25.90
2018-05-25T16:09:14.286Z,25.90
2018-05-25T16:11:40.525Z,25.80
2018-05-25T16:14:06.946Z,25.90
2018-05-25T16:16:33.186Z,26.10
2018-05-25T16:18:59.431Z,26.30
2018-05-25T16:21:25.645Z,26.40
2018-05-25T16:23:52.065Z,26.60
2018-05-25T16:26:18.305Z,26.70
2018-05-25T16:28:44.701Z,26.80
2018-05-25T16:31:11.018Z,27.00
2018-05-25T16:33:38.013Z,27.50
2018-05-25T16:36:04.238Z,27.50
2018-05-25T16:38:30.476Z,27.70
2018-05-25T16:40:56.681Z,28.00
2018-05-25T16:43:23.012Z,28.30
2018-05-25T16:45:49.390Z,28.30
2018-05-25T16:48:15.683Z,28.10
2018-05-25T16:50:41.916Z,28.00
2018-05-25T16:53:08.160Z,27.90
2018-05-25T16:55:39.940Z,27.90
2018-05-25T16:58:06.179Z,27.60
2018-05-25T17:00:33.166Z,27.20
2018-05-25T17:02:59.375Z,27.20
2018-05-25T17:05:25.583Z,27.20
2018-05-25T17:07:52.564Z,26.80
2018-05-25T17:10:18.803Z,26.80
2018-05-25T17:12:45.077Z,26.70
2018-05-25T17:15:11.251Z,26.60
2018-05-25T17:17:37.478Z,26.50
2018-05-25T17:20:03.715Z,26.50
2018-05-25T17:22:29.951Z,26.40
2018-05-25T17:24:56.191Z,26.30
2018-05-25T17:27:22.428Z,26.30
2018-05-25T17:29:48.697Z,26.20
2018-05-25T17:32:15.049Z,26.10
2018-05-25T17:34:41.366Z,26.00
2018-05-25T17:37:07.580Z,25.90
2018-05-25T17:39:34.622Z,25.60
2018-05-25T17:42:00.959Z,25.60
2018-05-25T17:44:27.417Z,25.40
2018-05-25T17:46:53.812Z,25.40
2018-05-25T17:49:20.873Z,25.10
2018-05-25T17:51:47.901Z,25.10
2018-05-25T17:54:14.183Z,24.90
2018-05-25T17:56:40.415Z,24.90
2018-05-25T17:59:06.690Z,24.80
2018-05-25T18:01:33.669Z,24.60
2018-05-25T18:03:59.934Z,24.50
2018-05-25T18:06:26.228Z,24.50
2018-05-25T18:08:52.474Z,24.50
2018-05-25T18:11:18.862Z,24.50
2018-05-25T18:13:45.102Z,24.40
2018-05-25T18:16:11.345Z,24.30
2018-05-25T18:18:37.601Z,24.30
2018-05-25T18:21:03.873Z,24.30
2018-05-25T18:23:30.115Z,24.30
2018-05-25T18:25:56.358Z,24.20
2018-05-25T18:28:22.608Z,24.10
2018-05-25T18:30:48.873Z,24.00
2018-05-25T18:33:15.845Z,23.80
2018-05-25T18:35:42.071Z,23.80
2018-05-25T18:38:08.317Z,23.70
2018-05-25T18:40:34.525Z,23.60
2018-05-25T18:43:00.763Z,23.50
2018-05-25T18:45:27.025Z,23.60
2018-05-25T18:47:54.007Z,23.50
2018-05-25T18:50:20.986Z,23.50
2018-05-25T18:52:47.206Z,23.50
2018-05-25T18:55:13.440Z,23.40
2018-05-25T18:57:39.781Z,23.30
2018-05-25T19:00:06.070Z,23.30
2018-05-25T19:02:33.053Z,23.30
2018-05-25T19:04:59.293Z,23.20
2018-05-25T19:07:25.510Z,23.20
2018-05-25T19:09:51.744Z,23.10
2018-05-25T19:12:18.007Z,23.10
2018-05-25T19:14:44.217Z,23.00
2018-05-25T19:17:10.458Z,22.90
2018-05-25T19:19:36.711Z,22.90
2018-05-25T19:22:03.678Z,22.60
2018-05-25T19:24:29.985Z,22.60
2018-05-25T19:26:57.081Z,22.40
2018-05-25T19:29:23.292Z,22.40
2018-05-25T19:31:49.544Z,22.40
2018-05-25T19:34:15.769Z,22.30
2018-05-25T19:36:42.047Z,22.30
2018-05-25T19:39:08.267Z,22.20
2018-05-25T19:41:35.260Z,22.00
2018-05-25T19:44:01.484Z,22.00
2018-05-25T19:46:27.722Z,21.90
2018-05-25T19:48:53.950Z,21.90
2018-05-25T19:51:20.289Z,21.90
2018-05-25T19:53:46.536Z,21.90
2018-05-25T19:56:12.762Z,21.90
2018-05-25T19:58:39.075Z,21.80
2018-05-25T20:01:05.307Z,21.80
2018-05-25T20:03:31.546Z,21.90
2018-05-25T20:05:58.536Z,21.80
2018-05-25T20:08:24.766Z,21.80
2018-05-25T20:10:51.044Z,21.80
2018-05-25T20:13:17.317Z,21.90
2018-05-25T20:15:44.349Z,21.70
2018-05-25T20:18:11.333Z,21.60
2018-05-25T20:20:37.550Z,21.60
2018-05-25T20:23:03.917Z,21.60
2018-05-25T20:25:30.212Z,21.60
2018-05-25T20:27:56.516Z,21.60
2018-05-25T20:30:22.763Z,21.60
2018-05-25T20:32:49.050Z,21.70
2018-05-25T20:35:15.471Z,21.60
2018-05-25T20:37:41.824Z,21.50
2018-05-25T20:40:08.838Z,21.50
2018-05-25T20:42:35.109Z,21.50
2018-05-25T20:45:01.374Z,21.40
2018-05-25T20:47:27.627Z,21.30
2018-05-25T20:49:53.876Z,21.30
2018-05-25T20:52:20.906Z,21.20
2018-05-25T20:54:47.913Z,21.20
2018-05-25T20:57:14.598Z,21.20
2018-05-25T20:59:40.830Z,21.20
2018-05-25T21:02:07.864Z,21.10
2018-05-25T21:04:34.070Z,21.10
2018-05-25T21:07:00.321Z,21.00
2018-05-25T21:09:27.260Z,21.00
2018-05-25T21:11:54.369Z,20.90
2018-05-25T21:14:20.631Z,20.80
2018-05-25T21:16:46.825Z,21.00
2018-05-25T21:19:13.070Z,21.00
2018-05-25T21:21:39.324Z,20.80
2018-05-25T21:24:05.630Z,20.80
2018-05-25T21:26:31.874Z,20.80
2018-05-25T21:28:58.209Z,20.70
2018-05-25T21:31:24.537Z,20.70
2018-05-25T21:33:50.800Z,20.70
2018-05-25T21:36:17.108Z,20.70
2018-05-25T21:38:43.307Z,20.60
2018-05-25T21:41:09.522Z,20.50
2018-05-25T21:43:35.763Z,20.40
2018-05-25T21:46:01.964Z,20.40
2018-05-25T21:48:28.187Z,20.30
2018-05-25T21:50:54.427Z,20.20
2018-05-25T21:53:20.654Z,20.10
2018-05-25T21:55:48.105Z,20.00
2018-05-25T21:58:14.332Z,20.00
2018-05-25T22:00:40.595Z,20.00
2018-05-25T22:03:06.822Z,19.90
2018-05-25T22:05:33.116Z,19.90
2018-05-25T22:07:59.391Z,20.10
2018-05-25T22:10:25.622Z,20.00
2018-05-25T22:12:51.940Z,20.00
2018-05-25T22:15:18.149Z,19.80
2018-05-25T22:17:44.419Z,19.80
2018-05-25T22:20:11.395Z,19.60
2018-05-25T22:22:37.622Z,19.60
2018-05-25T22:25:03.903Z,19.50
2018-05-25T22:27:30.133Z,19.50
2018-05-25T22:29:56.402Z,19.60
2018-05-25T22:32:22.628Z,19.60
2018-05-25T22:34:48.873Z,19.50
2018-05-25T22:37:15.064Z,19.40
2018-05-25T22:39:43.250Z,19.30
2018-05-25T22:42:09.239Z,19.20
2018-05-25T22:44:47.719Z,19.20
2018-05-25T22:47:26.183Z,19.10
2018-05-25T22:50:05.534Z,18.90
2018-05-25T22:52:37.763Z,18.90
2018-05-25T22:55:11.433Z,18.90
2018-05-25T22:57:37.778Z,18.90
2018-05-25T23:00:04.021Z,18.90
2018-05-25T23:02:30.267Z,18.80
2018-05-25T23:04:56.464Z,18.80
2018-05-25T23:07:22.704Z,18.80
2018-05-25T23:09:48.953Z,18.80
2018-05-25T23:12:15.901Z,18.80
2018-05-25T23:14:42.857Z,18.80
2018-05-25T23:17:09.829Z,18.90
2018-05-25T23:19:36.028Z,18.80
2018-05-25T23:22:02.990Z,18.80
2018-05-25T23:24:29.198Z,18.80
2018-05-25T23:26:56.224Z,18.90
2018-05-25T23:29:22.438Z,18.90
2018-05-25T23:31:48.695Z,18.80
2018-05-25T23:34:15.661Z,18.60
2018-05-25T23:36:41.853Z,18.60
2018-05-25T23:39:08.246Z,18.50
2018-05-25T23:41:34.448Z,18.50
2018-05-25T23:44:00.676Z,18.40
2018-05-25T23:46:26.893Z,18.30
2018-05-25T23:48:53.119Z,18.30
2018-05-25T23:51:20.082Z,18.10
2018-05-25T23:53:46.298Z,18.10
2018-05-25T23:56:12.489Z,18.10
2018-05-25T23:58:38.731Z,18.00
